Time;durP1;ratioP1;P1;durP2;ratioP2;P2;SDS_P1;SDS_P2;PMS_P1;PMS_P2;Temp;Humidity;BMP_temperature;BMP_pressure;BME280_temperature;BME280_humidity;BME280_pressure;Samples;Min_cycle;Max_cycle;Signal;HPM_P1;HPM_P2
2022/02/01 21:13:39;;;;;;;;;;;2.70;99.90;;;;;;5012493;28;19961;-73
2022/02/01 21:16:06;;;;;;;;;;;2.70;99.90;;;;;;5015015;28;19910;-74
2022/02/01 21:18:31;;;;;;;;;;;2.70;99.90;;;;;;5016496;28;19905;-74
2022/02/01 21:20:57;;;;;;;;;;;2.70;99.90;;;;;;5017377;28;19898;-74
2022/02/01 21:23:22;;;;;;;;;;;2.80;99.90;;;;;;5016524;28;19931;-73
2022/02/01 21:25:49;;;;;;;;;;;2.80;99.90;;;;;;5017141;28;19902;-74
2022/02/01 21:28:16;;;;;;;;;;;2.80;99.90;;;;;;5016593;28;19966;-74
2022/02/01 21:30:42;;;;;;;;;;;2.80;99.90;;;;;;5017303;28;19905;-74
2022/02/01 21:33:07;;;;;;;;;;;2.90;99.90;;;;;;5016911;28;19901;-74
2022/02/01 21:35:33;;;;;;;;;;;2.90;99.90;;;;;;5016955;28;19909;-74
2022/02/01 21:37:59;;;;;;;;;;;2.90;99.90;;;;;;5017230;28;19961;-74
2022/02/01 21:40:25;;;;;;;;;;;2.90;99.90;;;;;;5016113;28;19898;-72
2022/02/01 21:42:51;;;;;;;;;;;3.00;99.90;;;;;;5016012;28;19953;-74
2022/02/01 21:45:18;;;;;;;;;;;3.00;99.90;;;;;;5024126;28;19898;-74
2022/02/01 21:47:44;;;;;;;;;;;3.00;99.90;;;;;;5016697;28;19898;-74
2022/02/01 21:50:10;;;;;;;;;;;3.00;99.90;;;;;;5016803;28;19912;-74
2022/02/01 21:52:36;;;;;;;;;;;3.00;99.90;;;;;;5016644;28;19906;-74
2022/02/01 21:55:02;;;;;;;;;;;3.00;99.90;;;;;;5017900;28;19913;-74
2022/02/01 21:57:28;;;;;;;;;;;3.00;99.90;;;;;;5020784;28;19908;-73
2022/02/01 21:59:53;;;;;;;;;;;3.00;99.90;;;;;;5020610;28;19918;-73
2022/02/01 22:02:19;;;;;;;;;;;3.00;99.90;;;;;;5019828;28;19920;-74
2022/02/01 22:04:45;;;;;;;;;;;3.00;99.90;;;;;;5020185;28;19905;-74
2022/02/01 22:07:10;;;;;;;;;;;3.00;99.90;;;;;;5023672;28;19902;-74
2022/02/01 22:09:35;;;;;;;;;;;3.00;99.90;;;;;;5020732;28;19909;-71
2022/02/01 22:12:01;;;;;;;;;;;3.20;99.90;;;;;;5000221;28;19910;-72
2022/02/01 22:14:27;;;;;;;;;;;3.30;99.90;;;;;;5005750;28;19909;-74
2022/02/01 22:16:56;;;;;;;;;;;3.30;99.90;;;;;;5020196;28;19926;-74
2022/02/01 22:19:21;;;;;;;;;;;3.30;99.90;;;;;;5016685;28;19919;-72
2022/02/01 22:21:47;;;;;;;;;;;3.40;99.90;;;;;;4996357;28;20286;-71
2022/02/01 22:24:13;;;;;;;;;;;3.50;99.90;;;;;;4994946;28;19913;-72
2022/02/01 22:26:38;;;;;;;;;;;3.50;99.90;;;;;;4996537;28;19996;-71
2022/02/01 22:29:06;;;;;;;;;;;3.60;99.90;;;;;;4996684;28;19956;-71
2022/02/01 22:31:32;;;;;;;;;;;3.70;99.90;;;;;;4995574;28;20033;-72
2022/02/01 22:33:58;;;;;;;;;;;3.70;99.90;;;;;;4996583;28;20005;-72
2022/02/01 22:36:24;;;;;;;;;;;3.70;99.90;;;;;;4996091;28;19955;-72
2022/02/01 22:38:49;;;;;;;;;;;3.60;99.90;;;;;;4996106;28;20000;-72
2022/02/01 22:41:15;;;;;;;;;;;3.50;99.90;;;;;;4995953;28;19910;-72
2022/02/01 22:43:41;;;;;;;;;;;3.50;99.90;;;;;;4995609;28;19918;-71
2022/02/01 22:46:10;;;;;;;;;;;3.50;99.90;;;;;;4996042;28;19910;-71
2022/02/01 22:48:39;;;;;;;;;;;3.50;99.90;;;;;;4989947;28;19910;-72
2022/02/01 22:51:05;;;;;;;;;;;3.50;99.90;;;;;;4995974;28;19910;-71
2022/02/01 22:53:31;;;;;;;;;;;3.50;99.90;;;;;;4995266;28;19910;-72
2022/02/01 22:55:56;;;;;;;;;;;3.50;99.90;;;;;;4995667;28;19917;-71
2022/02/01 22:58:22;;;;;;;;;;;3.50;99.90;;;;;;4995402;28;19941;-72
2022/02/01 23:00:48;;;;;;;;;;;3.40;99.90;;;;;;4994977;28;19910;-72
2022/02/01 23:03:15;;;;;;;;;;;3.40;99.90;;;;;;4994507;28;19920;-74
2022/02/01 23:05:42;;;;;;;;;;;3.40;99.90;;;;;;4994241;28;20339;-71
2022/02/01 23:08:18;;;;;;;;;;;3.40;99.90;;;;;;4994395;28;19910;-72
2022/02/01 23:10:45;;;;;;;;;;;3.40;99.90;;;;;;4994894;28;19910;-71
2022/02/01 23:18:46;;;;;;;;;;;3.40;99.90;;;;;;4980482;28;19909;-72
2022/02/01 23:21:16;;;;;;;;;;;3.50;99.90;;;;;;4994696;28;20009;-74
2022/02/01 23:23:44;;;;;;;;;;;3.50;99.90;;;;;;4994542;28;20059;-71
2022/02/01 23:26:11;;;;;;;;;;;3.50;99.90;;;;;;4992109;28;19992;-74
2022/02/01 23:28:37;;;;;;;;;;;3.50;99.90;;;;;;4992877;28;20366;-72
2022/02/01 23:31:02;;;;;;;;;;;3.50;99.90;;;;;;4994375;28;19914;-73
2022/02/01 23:33:44;;;;;;;;;;;3.60;99.90;;;;;;4994132;28;20401;-71
2022/02/01 23:36:27;;;;;;;;;;;3.60;99.90;;;;;;4993993;28;20005;-71
2022/02/01 23:44:10;;;;;;;;;;;3.70;99.90;;;;;;4991407;28;20381;-71
2022/02/01 23:49:02;;;;;;;;;;;3.70;99.90;;;;;;4992817;28;19910;-71
2022/02/01 23:51:28;;;;;;;;;;;3.80;99.90;;;;;;4992135;28;19910;-71
2022/02/01 23:53:55;;;;;;;;;;;3.70;99.90;;;;;;4993125;28;19960;-71
2022/02/01 23:56:26;;;;;;;;;;;3.70;99.90;;;;;;4993641;28;19910;-71
